Time;durP1;ratioP1;P1;durP2;ratioP2;P2;SDS_P1;SDS_P2;PMS_P1;PMS_P2;Temp;Humidity;BMP_temperature;BMP_pressure;BME280_temperature;BME280_humidity;BME280_pressure;Samples;Min_cycle;Max_cycle;Signal;HPM_P1;HPM_P2
2023/07/07 00:03:44;;;;;;;13.68;5.05;;;;;;;32.02;55.22;99803.94;30883912;28;20053;-80
2023/07/07 00:18:46;;;;;;;8.82;5.82;;;;;;;31.93;55.10;99802.50;30878028;28;20515;-78
2023/07/07 00:33:48;;;;;;;14.88;5.03;;;;;;;31.79;55.36;99799.28;30876990;28;20133;-80
2023/07/07 00:48:51;;;;;;;8.15;4.68;;;;;;;31.74;55.82;99791.06;30870158;28;20126;-79
2023/07/07 01:04:01;;;;;;;8.10;4.45;;;;;;;31.95;55.06;99794.25;30881073;28;20077;-80
2023/07/07 01:19:15;;;;;;;6.15;4.00;;;;;;;31.65;55.33;99783.28;30890339;28;20047;-81
2023/07/07 01:34:18;;;;;;;10.40;3.92;;;;;;;31.52;55.10;99787.09;30883091;28;20461;-80
2023/07/07 01:49:25;;;;;;;5.22;4.13;;;;;;;31.80;54.06;99771.94;30867635;28;20085;-78
2023/07/07 02:04:27;;;;;;;10.73;3.90;;;;;;;31.63;54.08;99781.06;30871675;28;20066;-80
2023/07/07 02:19:29;;;;;;;8.98;4.05;;;;;;;31.50;54.14;99773.66;30869356;28;20051;-80
2023/07/07 02:34:31;;;;;;;7.63;4.13;;;;;;;31.15;54.64;99772.78;30868886;28;20489;-82
2023/07/07 02:49:34;;;;;;;6.60;3.88;;;;;;;31.05;54.80;99757.84;30869933;28;20058;-81
2023/07/07 03:04:36;;;;;;;9.55;4.20;;;;;;;30.65;55.32;99755.06;30860942;28;20088;-81
2023/07/07 03:19:42;;;;;;;6.25;3.53;;;;;;;31.06;54.69;99764.22;30874436;28;20094;-79
2023/07/07 03:34:47;;;;;;;10.15;3.72;;;;;;;31.43;54.08;99773.69;30885132;28;20150;-79
2023/07/07 03:49:49;;;;;;;7.45;4.10;;;;;;;31.14;54.49;99759.34;30886418;28;20059;-79
2023/07/07 04:04:51;;;;;;;12.38;4.22;;;;;;;31.56;52.34;99742.56;30889748;28;20046;-80
2023/07/07 04:19:54;;;;;;;9.82;4.82;;;;;;;31.92;50.55;99736.47;30880497;28;20421;-79
2023/07/07 04:34:56;;;;;;;12.00;3.35;;;;;;;32.60;48.85;99737.78;30875025;28;20098;-78
2023/07/07 04:49:58;;;;;;;5.57;3.30;;;;;;;33.12;48.47;99729.22;30867185;28;20054;-80
2023/07/07 05:05:00;;;;;;;5.15;3.55;;;;;;;33.78;48.04;99735.72;30874978;28;20145;-82
2023/07/07 05:20:03;;;;;;;4.43;2.90;;;;;;;34.67;45.85;99724.63;30887643;28;20058;-82
2023/07/07 05:35:05;;;;;;;8.45;2.90;;;;;;;34.73;44.46;99737.06;30878396;28;20050;-79
2023/07/07 05:50:09;;;;;;;6.93;2.58;;;;;;;35.69;44.11;99721.13;30873690;28;20062;-80
2023/07/07 06:05:11;;;;;;;7.13;3.05;;;;;;;35.73;43.81;99727.03;30878292;28;20042;-81
2023/07/07 06:20:14;;;;;;;9.45;3.30;;;;;;;36.51;42.15;99705.34;30875669;28;20186;-89
2023/07/07 06:35:16;;;;;;;8.38;3.53;;;;;;;37.04;41.46;99703.00;30899552;28;20497;-86
2023/07/07 06:50:27;;;;;;;5.90;3.45;;;;;;;37.69;40.66;99698.44;30907698;28;20432;-87
2023/07/07 07:05:29;;;;;;;9.63;3.67;;;;;;;38.30;40.50;99687.75;30898295;28;20055;-85
2023/07/07 07:20:31;;;;;;;7.85;3.50;;;;;;;38.81;39.54;99686.34;30884154;28;20102;-84
2023/07/07 07:35:33;;;;;;;9.40;3.10;;;;;;;39.41;39.29;99684.53;30896272;28;20043;-86
2023/07/07 07:50:53;;;;;;;6.95;3.80;;;;;;;40.01;38.15;99681.19;30868241;28;20051;-82
2023/07/07 08:05:56;;;;;;;12.52;3.15;;;;;;;40.54;36.76;99690.13;30890554;28;20827;-83
2023/07/07 08:20:58;;;;;;;4.97;2.78;;;;;;;40.68;35.75;99677.94;30901210;28;20054;-84
2023/07/07 08:36:02;;;;;;;6.43;2.58;;;;;;;41.06;35.33;99681.81;30894720;28;20062;-79
2023/07/07 08:51:14;;;;;;;6.50;2.97;;;;;;;41.30;35.83;99685.75;30885590;28;20082;-82
2023/07/07 09:06:53;;;;;;;8.32;2.88;;;;;;;41.31;33.58;99672.97;30878456;28;20134;-84
2023/07/07 09:21:59;;;;;;;4.88;2.00;;;;;;;42.01;30.53;99663.13;30876396;28;20485;-82
2023/07/07 09:37:21;;;;;;;9.30;2.60;;;;;;;41.72;31.14;99646.22;30857500;28;20492;-82
2023/07/07 09:52:41;;;;;;;13.50;2.50;;;;;;;41.01;31.24;99628.94;30874473;28;20050;-79
2023/07/07 10:07:43;;;;;;;3.87;1.97;;;;;;;40.39;30.33;99621.88;30866215;28;20117;-82
2023/07/07 10:22:46;;;;;;;6.85;2.20;;;;;;;41.37;30.53;99616.28;30870914;28;20046;-80
2023/07/07 10:37:48;;;;;;;4.43;2.42;;;;;;;41.60;29.65;99602.97;30877293;28;20053;-83
2023/07/07 10:53:10;;;;;;;3.88;2.20;;;;;;;42.21;30.24;99595.47;30888221;28;20062;-80
2023/07/07 11:08:26;;;;;;;6.70;2.60;;;;;;;43.39;29.78;99579.75;30854695;28;20054;-85
2023/07/07 11:23:51;;;;;;;4.82;2.78;;;;;;;40.92;31.32;99570.91;30888790;28;20412;-83
2023/07/07 11:39:05;;;;;;;3.28;2.50;;;;;;;40.49;31.93;99556.91;30881579;28;20058;-83
2023/07/07 11:54:31;;;;;;;6.10;2.53;;;;;;;40.09;32.32;99539.47;30884285;28;20051;-84
2023/07/07 12:09:51;;;;;;;4.93;2.63;;;;;;;40.49;32.08;99531.31;30895844;28;20051;-83
2023/07/07 12:25:02;;;;;;;5.75;2.63;;;;;;;40.41;31.42;99522.44;30869676;28;20733;-82
2023/07/07 12:40:11;;;;;;;4.18;2.50;;;;;;;40.10;31.92;99501.16;30882348;28;20061;-83
2023/07/07 12:55:25;;;;;;;7.30;2.08;;;;;;;39.94;31.62;99497.56;30891955;28;20397;-85
2023/07/07 13:10:47;;;;;;;6.97;2.55;;;;;;;39.49;32.02;99481.25;30867199;28;20055;-89
2023/07/07 13:25:49;;;;;;;4.32;2.92;;;;;;;39.60;32.99;99459.00;30881588;28;20058;-84
2023/07/07 13:40:51;;;;;;;4.65;3.00;;;;;;;39.31;33.14;99443.44;30880835;28;20105;-84
2023/07/07 13:55:54;;;;;;;6.57;2.97;;;;;;;39.35;33.25;99435.13;30881482;28;20039;-84
2023/07/07 14:10:56;;;;;;;7.68;2.67;;;;;;;39.32;33.40;99422.19;30880036;28;20113;-82
2023/07/07 14:25:59;;;;;;;6.40;3.63;;;;;;;39.23;33.90;99414.66;30902319;28;20139;-83
2023/07/07 14:41:11;;;;;;;7.00;3.80;;;;;;;39.12;33.81;99404.94;30882485;28;20428;-87
2023/07/07 14:56:23;;;;;;;7.37;3.47;;;;;;;39.04;33.56;99398.13;30895072;28;20051;-84
2023/07/07 15:11:30;;;;;;;6.60;3.78;;;;;;;37.76;36.99;99403.66;30864530;28;20051;-84
2023/07/07 15:26:35;;;;;;;5.88;3.50;;;;;;;37.79;35.73;99388.25;30892748;28;20166;-82
2023/07/07 15:41:37;;;;;;;5.35;3.60;;;;;;;37.84;36.11;99375.75;30899816;28;20055;-85
2023/07/07 15:56:42;;;;;;;5.97;3.45;;;;;;;37.92;37.04;99361.28;30905414;28;20042;-86
2023/07/07 16:11:45;;;;;;;7.43;3.75;;;;;;;37.44;37.30;99382.03;30899938;28;20207;-82
2023/07/07 16:26:47;;;;;;;9.85;3.60;;;;;;;36.57;34.94;99431.53;30877452;28;20078;-75
2023/07/07 16:41:49;;;;;;;5.97;4.25;;;;;;;34.01;43.60;99392.56;30851464;28;20109;-88
2023/07/07 16:56:52;;;;;;;6.63;4.10;;;;;;;34.37;44.11;99427.38;30885508;28;20073;-86
2023/07/07 17:11:54;;;;;;;8.50;5.03;;;;;;;34.42;43.91;99420.69;30879280;28;20055;-84
2023/07/07 17:26:57;;;;;;;7.70;4.63;;;;;;;34.30;46.27;99425.47;30874100;28;20047;-82
2023/07/07 17:41:59;;;;;;;13.00;5.32;;;;;;;34.38;46.94;99440.13;30876429;28;20531;-82
2023/07/07 17:57:03;;;;;;;28.00;13.48;;;;;;;34.33;49.40;99472.91;30877521;28;20054;-88
2023/07/07 18:12:10;;;;;;;11.50;5.75;;;;;;;34.04;49.56;99458.91;30887740;28;20047;-87
2023/07/07 18:27:12;;;;;;;8.43;5.18;;;;;;;34.01;48.94;99445.31;30898410;28;20133;-88
2023/07/07 18:42:14;;;;;;;7.13;4.88;;;;;;;33.98;48.18;99424.72;30886756;28;20057;-84
2023/07/07 18:57:16;;;;;;;5.65;4.43;;;;;;;33.83;47.88;99419.41;30887967;28;20106;-80
2023/07/07 19:12:19;;;;;;;6.45;3.85;;;;;;;33.70;47.93;99419.88;30881564;28;20046;-84
2023/07/07 19:27:21;;;;;;;9.30;4.60;;;;;;;33.46;48.59;99414.03;30882585;28;20083;-80
2023/07/07 19:42:23;;;;;;;6.50;3.83;;;;;;;33.19;49.17;99419.06;30874433;28;20058;-79
2023/07/07 19:57:26;;;;;;;7.15;4.25;;;;;;;33.06;49.21;99420.25;30877933;28;20138;-79
2023/07/07 20:12:28;;;;;;;9.40;4.53;;;;;;;32.92;49.94;99424.81;30875983;28;20078;-81
2023/07/07 20:27:30;;;;;;;7.68;4.05;;;;;;;32.82;50.21;99405.16;30874171;28;20086;-81
2023/07/07 20:42:32;;;;;;;13.10;5.45;;;;;;;32.68;50.77;99412.50;30872086;28;20070;-81
2023/07/07 20:57:34;;;;;;;17.17;7.88;;;;;;;32.59;52.12;99392.81;30874776;28;20082;-84
2023/07/07 21:12:39;;;;;;;23.00;12.40;;;;;;;32.70;52.68;99386.63;30880604;28;20066;-86
2023/07/07 21:27:48;;;;;;;30.00;13.40;;;;;;;32.13;55.07;99391.47;30895691;28;20066;-82
2023/07/07 21:42:50;;;;;;;22.25;10.90;;;;;;;32.02;54.52;99377.28;30874253;28;20050;-79
2023/07/07 21:57:55;;;;;;;18.98;8.50;;;;;;;31.70;56.79;99378.31;30853581;28;20498;-77
2023/07/07 22:12:57;;;;;;;9.38;5.85;;;;;;;31.26;59.13;99384.66;30845664;28;20231;-77
2023/07/07 22:28:00;;;;;;;8.60;5.45;;;;;;;30.75;62.13;99383.34;30847398;28;20592;-78
2023/07/07 22:43:02;;;;;;;9.93;6.82;;;;;;;30.45;63.36;99378.03;30830680;28;20046;-76
2023/07/07 22:58:13;;;;;;;7.22;5.45;;;;;;;30.27;65.85;99373.69;30848444;28;20066;-76
2023/07/07 23:13:15;;;;;;;7.20;5.20;;;;;;;30.06;65.99;99399.25;30848457;28;20469;-76
2023/07/07 23:28:17;;;;;;;9.25;4.93;;;;;;;29.95;66.70;99380.09;30843401;28;20059;-76
2023/07/07 23:43:19;;;;;;;10.32;6.15;;;;;;;29.52;79.58;99366.03;30859027;28;20050;-75
2023/07/07 23:58:26;;;;;;;10.65;6.28;;;;;;;29.40;91.78;99364.22;30856212;28;20051;-76
